Time;durP1;ratioP1;P1;durP2;ratioP2;P2;SDS_P1;SDS_P2;PMS_P1;PMS_P2;Temp;Humidity;BMP_temperature;BMP_pressure;BME280_temperature;BME280_humidity;BME280_pressure;Samples;Min_cycle;Max_cycle;Signal;HPM_P1;HPM_P2
2021/12/11 00:03:47;;;;;;;124.20;46.20;;;;;;;-2.97;86.77;97482.41;421155;1312;98595;-40
2021/12/11 00:13:55;;;;;;;149.30;48.90;;;;;;;-3.01;86.59;97492.77;421763;1309;110958;-40
2021/12/11 00:24:08;;;;;;;124.90;46.50;;;;;;;-3.11;86.13;97509.73;421683;1309;108911;-41
2021/12/11 00:34:18;;;;;;;119.60;51.00;;;;;;;-3.15;86.51;97512.80;421768;1309;97565;-41
2021/12/11 00:44:33;;;;;;;114.20;47.30;;;;;;;-3.06;86.39;97526.46;421664;1310;111057;-40
2021/12/11 00:54:40;;;;;;;107.00;46.50;;;;;;;-2.93;86.58;97555.73;421597;1309;108856;-40
2021/12/11 01:04:48;;;;;;;126.30;50.40;;;;;;;-2.75;86.59;97555.83;421576;1310;98209;-41
2021/12/11 01:14:56;;;;;;;142.30;52.70;;;;;;;-2.90;86.60;97573.11;417917;1309;5401142;-40
2021/12/11 01:25:04;;;;;;;145.70;53.80;;;;;;;-2.92;86.77;97588.02;421235;1310;96758;-40
2021/12/11 01:35:14;;;;;;;123.80;48.90;;;;;;;-3.10;86.49;97601.69;421501;1309;98592;-40
2021/12/11 01:45:22;;;;;;;109.60;47.80;;;;;;;-3.11;86.82;97615.82;421702;1310;111267;-40
2021/12/11 01:55:35;;;;;;;94.70;44.50;;;;;;;-3.02;86.58;97605.39;421667;1309;107870;-40
2021/12/11 02:05:45;;;;;;;154.50;60.70;;;;;;;-2.89;86.69;97615.94;421794;1309;98516;-39
2021/12/11 02:15:53;;;;;;;204.40;71.10;;;;;;;-2.85;86.75;97632.29;421659;1309;109029;-40
2021/12/11 02:26:00;;;;;;;187.80;70.60;;;;;;;-2.97;86.71;97643.05;421980;1309;97972;-40
2021/12/11 02:46:51;;;;;;;217.40;72.30;;;;;;;-3.31;86.69;97654.73;418103;1317;111162;-40
2021/12/11 02:57:04;;;;;;;179.70;65.10;;;;;;;-3.41;86.70;97666.84;418122;1318;108336;-39
2021/12/11 03:07:14;;;;;;;191.10;69.80;;;;;;;-3.40;86.49;97686.16;418265;1317;97577;-40
2021/12/11 03:17:27;;;;;;;142.60;55.30;;;;;;;-3.37;86.56;97697.20;418106;1317;111669;-40
2021/12/11 03:27:35;;;;;;;113.80;46.20;;;;;;;-3.32;86.65;97703.10;418006;1317;108717;-40
2021/12/11 03:37:42;;;;;;;130.00;52.70;;;;;;;-3.30;86.63;97703.17;418277;1317;98005;-40
2021/12/11 03:47:52;;;;;;;128.40;44.40;;;;;;;-3.42;86.55;97715.52;418203;1317;109390;-41
2021/12/11 03:58:01;;;;;;;128.80;44.30;;;;;;;-3.61;86.68;97730.70;418141;1317;97958;-39
2021/12/11 04:08:11;;;;;;;145.50;51.60;;;;;;;-3.72;86.70;97733.71;418423;1316;109605;-41
2021/12/11 04:18:19;;;;;;;105.00;44.40;;;;;;;-3.76;86.75;97743.59;418254;1317;109340;-40
2021/12/11 04:28:29;;;;;;;111.20;44.50;;;;;;;-3.71;86.85;97750.30;418219;1317;97157;-40
2021/12/11 04:38:37;;;;;;;112.70;47.20;;;;;;;-3.57;86.72;97754.63;418179;1317;111319;-39
2021/12/11 04:48:56;;;;;;;135.60;50.00;;;;;;;-3.38;86.93;97757.11;418497;1317;108883;-41
2021/12/11 05:09:26;;;;;;;130.20;47.50;;;;;;;-3.29;87.04;97766.66;418250;1317;111187;-40
2021/12/11 05:19:34;;;;;;;113.30;45.20;;;;;;;-3.32;87.03;97782.17;418355;1317;108883;-41
2021/12/11 05:29:42;;;;;;;100.80;44.60;;;;;;;-3.22;87.05;97798.88;418067;1317;97964;-40
2021/12/11 05:39:50;;;;;;;100.10;47.00;;;;;;;-3.15;86.98;97816.16;418238;1316;111104;-40
2021/12/11 06:00:05;;;;;;;116.80;53.30;;;;;;;-3.03;86.92;97843.55;418265;1317;97987;-39
2021/12/11 06:10:33;;;;;;;88.50;45.50;;;;;;;-2.98;87.08;97855.79;418134;1317;108943;-39
2021/12/11 06:20:40;;;;;;;131.50;55.30;;;;;;;-2.93;87.13;97867.32;418155;1317;97133;-40
2021/12/11 06:30:48;;;;;;;132.40;55.50;;;;;;;-2.94;87.39;97873.83;418231;1317;111301;-41
2021/12/11 06:40:57;;;;;;;139.80;56.30;;;;;;;-2.95;87.29;97886.20;417954;1318;109031;-40
2021/12/11 06:51:08;;;;;;;115.10;56.70;;;;;;;-2.90;87.21;97894.77;418176;1317;98530;-39
2021/12/11 07:01:15;;;;;;;109.90;49.40;;;;;;;-2.67;87.15;97913.84;418182;1317;111517;-39
2021/12/11 07:11:24;;;;;;;88.90;43.90;;;;;;;-2.41;87.20;97931.95;418154;1318;108937;-40
2021/12/11 07:21:30;;;;;;;120.60;53.60;;;;;;;-2.30;87.01;97941.26;418175;1317;97090;-40
2021/12/11 07:31:38;;;;;;;135.20;54.50;;;;;;;-2.34;87.05;97951.17;418216;1317;110812;-40
2021/12/11 07:41:47;;;;;;;134.90;61.80;;;;;;;-2.46;86.65;97957.49;418330;1317;109025;-41
2021/12/11 07:51:55;;;;;;;139.40;61.20;;;;;;;-2.71;86.45;97980.22;418121;1318;108521;-40
2021/12/11 08:02:03;;;;;;;153.00;65.00;;;;;;;-2.81;86.77;98003.70;418430;1316;97986;-40
2021/12/11 08:12:12;;;;;;;138.30;65.50;;;;;;;-2.78;86.57;98030.32;418433;1317;111558;-42
2021/12/11 08:22:18;;;;;;;159.70;76.10;;;;;;;-2.55;86.72;98044.70;418080;1316;108628;-40
2021/12/11 08:32:26;;;;;;;183.50;81.90;;;;;;;-1.23;87.24;98052.71;418275;1317;98070;-40
2021/12/11 08:42:34;;;;;;;226.20;104.00;;;;;;;-0.82;86.56;98073.77;418259;1317;108299;-39
2021/12/11 08:52:45;;;;;;;208.10;92.20;;;;;;;0.07;87.01;98092.76;417943;1318;109060;-40
2021/12/11 09:02:55;;;;;;;201.90;86.50;;;;;;;0.24;86.49;98109.84;418296;1317;97971;-40
2021/12/11 09:13:11;;;;;;;164.00;74.90;;;;;;;0.43;85.99;98122.57;418223;1316;727003;-43
2021/12/11 09:33:30;;;;;;;177.90;82.10;;;;;;;0.96;86.06;98153.13;418475;1317;97954;-40
2021/12/11 09:43:40;;;;;;;126.90;65.40;;;;;;;1.40;85.79;98151.21;418506;1317;98044;-41
2021/12/11 09:53:52;;;;;;;125.70;61.30;;;;;;;1.23;85.34;98172.03;418304;1316;109392;-42
2021/12/11 10:04:05;;;;;;;167.40;79.80;;;;;;;1.04;85.48;98186.08;418265;1316;108936;-40
2021/12/11 10:14:17;;;;;;;183.30;85.70;;;;;;;0.67;85.40;98199.45;418510;1315;98011;-41
2021/12/11 10:24:25;;;;;;;172.00;83.20;;;;;;;0.65;85.85;98214.77;418496;1317;111251;-41
2021/12/11 10:34:34;;;;;;;130.30;63.90;;;;;;;0.55;85.52;98233.05;418346;1316;108880;-39
2021/12/11 10:44:44;;;;;;;141.50;67.70;;;;;;;0.40;85.48;98252.15;418502;1316;97974;-40
2021/12/11 10:54:54;;;;;;;133.00;66.80;;;;;;;0.47;85.91;98257.36;418329;1320;112009;-42
2021/12/11 11:05:06;;;;;;;192.50;86.60;;;;;;;0.59;85.86;98255.20;418313;1316;106695;-39
2021/12/11 11:25:27;;;;;;;196.10;89.80;;;;;;;0.94;85.79;98273.48;418502;1317;111330;-40
2021/12/11 11:35:33;;;;;;;196.40;89.90;;;;;;;0.93;85.62;98282.09;418312;1317;108248;-40
2021/12/11 11:45:41;;;;;;;145.40;69.20;;;;;;;1.00;85.57;98282.68;418264;1316;108409;-40
2021/12/11 11:55:53;;;;;;;138.90;74.10;;;;;;;1.21;85.48;98299.28;418286;1315;97970;-40
2021/12/11 12:06:06;;;;;;;178.30;82.70;;;;;;;1.42;85.88;98304.01;418284;1315;108181;-41
2021/12/11 12:16:13;;;;;;;175.70;81.40;;;;;;;1.67;85.74;98301.43;418296;1317;96779;-40
2021/12/11 12:26:23;;;;;;;237.70;107.60;;;;;;;1.49;85.17;98297.97;418378;1317;100214;-40
2021/12/11 12:36:32;;;;;;;219.90;102.00;;;;;;;1.27;85.29;98299.03;418563;1315;111276;-40
2021/12/11 12:46:42;;;;;;;201.10;93.30;;;;;;;1.26;85.25;98302.46;418478;1317;108896;-41
2021/12/11 12:56:49;;;;;;;139.40;74.10;;;;;;;1.22;85.05;98307.77;418120;1317;98611;-42
2021/12/11 13:07:00;;;;;;;126.80;66.90;;;;;;;1.21;84.89;98328.02;418192;1317;111710;-41
2021/12/11 13:17:09;;;;;;;170.80;80.80;;;;;;;1.18;84.98;98338.88;418131;1315;108915;-39
2021/12/11 13:27:19;;;;;;;177.30;82.00;;;;;;;0.97;85.18;98352.96;418068;1316;97983;-40
2021/12/11 13:37:29;;;;;;;220.70;96.50;;;;;;;0.81;85.14;98353.62;418169;1316;110899;-41
2021/12/11 13:47:39;;;;;;;174.50;79.20;;;;;;;0.63;85.01;98356.17;418277;1316;107908;-41
2021/12/11 13:57:47;;;;;;;164.60;73.10;;;;;;;0.38;85.04;98372.01;418455;1315;98057;-42
2021/12/11 14:07:56;;;;;;;101.90;56.30;;;;;;;0.12;84.95;98379.89;418312;1316;98036;-41
2021/12/11 14:18:04;;;;;;;105.20;50.70;;;;;;;-0.09;84.70;98395.02;418357;1317;110886;-40
2021/12/11 14:28:15;;;;;;;158.50;71.10;;;;;;;-0.27;84.89;98416.94;418169;1315;107857;-42
2021/12/11 14:38:23;;;;;;;157.80;70.60;;;;;;;-0.64;84.79;98435.80;418381;1317;97988;-39
2021/12/11 14:48:31;;;;;;;202.70;82.50;;;;;;;-1.05;84.77;98450.77;418324;1315;111383;-40
2021/12/11 14:58:39;;;;;;;234.70;95.00;;;;;;;-1.56;84.73;98473.46;418471;1315;107331;-40
2021/12/11 15:08:48;;;;;;;216.40;95.30;;;;;;;-1.97;84.85;98490.94;418341;1315;97830;-41
2021/12/11 15:18:59;;;;;;;201.70;94.50;;;;;;;-2.26;84.75;98501.83;418241;1315;111286;-41
2021/12/11 15:29:08;;;;;;;204.50;102.20;;;;;;;-2.35;85.16;98522.52;418289;1315;108966;-43
2021/12/11 15:39:21;;;;;;;210.80;103.70;;;;;;;-2.15;85.41;98546.30;418355;1315;97911;-40
2021/12/11 15:49:27;;;;;;;280.20;130.60;;;;;;;-1.88;85.51;98576.38;418298;1315;108840;-40
2021/12/11 15:59:35;;;;;;;347.00;153.70;;;;;;;-1.66;85.87;98588.57;418373;1317;98784;-40
2021/12/11 16:09:45;;;;;;;344.10;153.80;;;;;;;-1.47;85.96;98594.95;418344;1317;111154;-39
2021/12/11 16:30:02;;;;;;;273.40;128.70;;;;;;;-1.19;86.11;98617.90;418185;1315;97593;-41
2021/12/11 16:40:14;;;;;;;227.30;110.10;;;;;;;-0.98;85.92;98635.41;418264;1315;109118;-41
2021/12/11 16:50:24;;;;;;;173.00;87.40;;;;;;;-0.71;86.03;98655.15;418318;1315;108919;-41
2021/12/11 17:00:32;;;;;;;221.20;100.20;;;;;;;-0.57;86.12;98673.66;418182;1315;98069;-41
2021/12/11 17:10:44;;;;;;;217.70;98.80;;;;;;;-0.56;85.89;98683.04;418256;1315;111379;-40
2021/12/11 17:20:59;;;;;;;185.70;80.90;;;;;;;-0.63;85.96;98685.91;414321;1317;5409205;-40
2021/12/11 17:31:08;;;;;;;205.00;85.90;;;;;;;-0.76;85.99;98688.73;418301;1315;97971;-42
2021/12/11 17:41:15;;;;;;;160.60;70.50;;;;;;;-0.78;85.81;98681.69;418348;1315;111212;-40
2021/12/11 17:51:24;;;;;;;122.10;59.50;;;;;;;-0.75;86.00;98686.38;418185;1315;108218;-41
2021/12/11 18:01:37;;;;;;;97.50;50.20;;;;;;;-0.68;85.84;98699.67;418192;1315;97984;-40
2021/12/11 18:11:49;;;;;;;156.30;67.40;;;;;;;-0.66;86.04;98710.61;418484;1315;108941;-40
2021/12/11 18:21:57;;;;;;;150.40;66.50;;;;;;;-0.71;85.91;98732.75;418356;1317;98621;-41
2021/12/11 18:32:10;;;;;;;149.90;66.90;;;;;;;-0.92;85.68;98742.80;418296;1315;110945;-41
2021/12/11 18:42:22;;;;;;;155.00;66.80;;;;;;;-1.14;85.49;98763.36;418300;1315;108921;-41
2021/12/11 18:52:33;;;;;;;145.30;66.50;;;;;;;-1.29;85.66;98773.20;418089;1317;97927;-41
2021/12/11 19:02:45;;;;;;;191.90;81.00;;;;;;;-1.30;85.66;98795.77;418035;1315;111297;-41
2021/12/11 19:12:54;;;;;;;182.00;76.70;;;;;;;-1.15;85.89;98815.70;417859;1315;108915;-39
2021/12/11 19:23:01;;;;;;;217.00;83.50;;;;;;;-1.05;85.85;98835.34;418036;1315;98036;-40
2021/12/11 19:33:13;;;;;;;193.30;82.40;;;;;;;-1.09;85.97;98842.77;417997;1315;111319;-41
2021/12/11 19:43:21;;;;;;;158.40;68.20;;;;;;;-1.19;85.90;98850.72;418165;1315;108875;-40
2021/12/11 19:53:29;;;;;;;195.40;77.30;;;;;;;-1.22;86.12;98868.13;417906;1315;109155;-41
2021/12/11 20:03:39;;;;;;;150.10;71.00;;;;;;;-1.14;86.10;98874.27;417964;1318;97989;-40
2021/12/11 20:13:47;;;;;;;158.00;71.80;;;;;;;-1.05;85.97;98899.01;417876;1315;107994;-42
2021/12/11 20:23:55;;;;;;;228.70;95.80;;;;;;;-0.87;86.40;98909.52;417977;1315;100290;-40
2021/12/11 20:34:03;;;;;;;294.20;108.90;;;;;;;-0.62;86.31;98932.28;417966;1315;110112;-40
2021/12/11 20:44:13;;;;;;;199.60;87.80;;;;;;;-0.72;85.92;98948.75;417981;1315;108889;-40
2021/12/11 20:54:24;;;;;;;188.40;82.70;;;;;;;-0.90;86.02;98954.98;418147;1315;106580;-41
2021/12/11 21:04:35;;;;;;;167.80;76.00;;;;;;;-1.00;86.10;98968.22;417754;1315;98020;-40
2021/12/11 21:14:44;;;;;;;187.80;87.40;;;;;;;-1.01;86.16;98973.11;417850;1317;111471;-41
2021/12/11 21:24:50;;;;;;;139.70;70.10;;;;;;;-0.90;86.27;98975.59;418091;1315;107893;-40
2021/12/11 21:35:05;;;;;;;118.40;58.70;;;;;;;-0.78;86.27;98984.92;418223;1315;97799;-40
2021/12/11 21:45:16;;;;;;;146.50;66.00;;;;;;;-0.75;86.17;98998.44;418351;1315;108864;-41
2021/12/11 21:55:28;;;;;;;156.50;70.30;;;;;;;-0.87;86.17;99002.08;418203;1315;97987;-39
2021/12/11 22:05:35;;;;;;;187.30;86.20;;;;;;;-0.98;86.29;99026.18;418187;1315;98058;-41
2021/12/11 22:15:46;;;;;;;116.30;57.80;;;;;;;-0.95;86.21;99047.84;418397;1314;111138;-41
2021/12/11 22:25:59;;;;;;;116.80;58.60;;;;;;;-0.88;86.02;99060.15;418220;1315;107893;-41
2021/12/11 22:36:07;;;;;;;126.10;60.80;;;;;;;-0.78;86.31;99077.05;418265;1315;97937;-40
2021/12/11 22:46:16;;;;;;;188.10;82.00;;;;;;;-0.67;86.51;99089.33;418301;1315;111415;-40
2021/12/11 22:56:26;;;;;;;165.20;67.60;;;;;;;-0.69;86.44;99097.23;418109;1317;108844;-41
2021/12/11 23:06:33;;;;;;;221.00;85.90;;;;;;;-0.75;86.47;99097.63;418130;1317;96681;-40
2021/12/11 23:16:44;;;;;;;268.10;94.10;;;;;;;-0.83;86.20;99093.10;418321;1315;111098;-40
2021/12/11 23:26:57;;;;;;;109.70;47.50;;;;;;;-0.90;86.08;99088.78;418141;1317;109292;-40
2021/12/11 23:37:10;;;;;;;97.40;49.40;;;;;;;-0.93;86.02;99086.77;418399;1315;98110;-40
2021/12/11 23:47:22;;;;;;;87.60;44.40;;;;;;;-0.91;86.15;99087.34;418429;1315;110880;-42
2021/12/11 23:57:33;;;;;;;94.90;48.00;;;;;;;-0.90;86.14;99081.48;418049;1316;107999;-39
